createdAt,value
2023-02-05T00:02:08.921Z,1.97
2023-02-05T00:05:11.897Z,2.10
2023-02-05T00:08:14.898Z,2.03
2023-02-05T00:11:19.345Z,2.07
2023-02-05T00:14:22.375Z,1.67
2023-02-05T00:17:25.430Z,1.43
2023-02-05T00:20:28.576Z,1.67
2023-02-05T00:23:31.690Z,1.90
2023-02-05T00:26:35.936Z,2.00
2023-02-05T00:29:39.167Z,1.90
2023-02-05T00:32:42.091Z,2.17
2023-02-05T00:35:45.693Z,1.60
2023-02-05T00:38:49.085Z,1.47
2023-02-05T00:41:53.843Z,1.70
2023-02-05T00:44:57.057Z,1.40
2023-02-05T00:47:59.946Z,1.27
2023-02-05T00:51:03.063Z,1.60
2023-02-05T00:54:06.138Z,2.03
2023-02-05T00:57:10.545Z,1.73
2023-02-05T01:00:15.014Z,2.00
2023-02-05T01:03:18.753Z,1.70
2023-02-05T01:06:22.109Z,1.23
2023-02-05T01:09:25.071Z,1.87
2023-02-05T01:12:29.379Z,1.60
2023-02-05T01:15:33.174Z,1.77
2023-02-05T01:18:36.345Z,1.70
2023-02-05T01:21:39.264Z,1.77
2023-02-05T01:24:42.180Z,1.60
2023-02-05T01:27:46.519Z,1.30
2023-02-05T01:30:49.854Z,1.63
2023-02-05T01:33:52.860Z,1.77
2023-02-05T01:36:55.836Z,1.50
2023-02-05T01:39:58.840Z,1.50
2023-02-05T01:43:03.093Z,1.70
2023-02-05T01:46:17.289Z,1.63
2023-02-05T01:49:24.250Z,1.37
2023-02-05T01:52:27.264Z,1.80
2023-02-05T01:55:31.653Z,1.63
2023-02-05T01:58:41.975Z,1.60
2023-02-05T02:01:45.264Z,1.63
2023-02-05T02:04:51.091Z,1.57
2023-02-05T02:07:54.051Z,1.90
2023-02-05T02:10:59.220Z,1.00
2023-02-05T02:14:06.363Z,1.50
2023-02-05T02:17:11.556Z,1.80
2023-02-05T02:20:17.362Z,1.20
2023-02-05T02:23:32.026Z,1.57
2023-02-05T02:26:49.223Z,1.50
2023-02-05T02:29:58.436Z,1.20
2023-02-05T02:33:08.685Z,1.20
2023-02-05T02:36:17.473Z,1.47
2023-02-05T02:39:24.137Z,1.50
2023-02-05T02:42:33.263Z,1.40
2023-02-05T02:45:47.264Z,1.33
2023-02-05T02:48:53.375Z,1.63
2023-02-05T02:51:59.016Z,1.30
2023-02-05T02:55:07.812Z,1.57
2023-02-05T02:58:15.047Z,1.70
2023-02-05T03:01:24.578Z,2.13
2023-02-05T03:04:31.949Z,3.50
2023-02-05T03:07:39.445Z,3.80
2023-02-05T03:10:47.300Z,5.30
2023-02-05T03:13:50.372Z,4.63
2023-02-05T03:16:55.359Z,4.70
2023-02-05T03:20:03.938Z,3.30
2023-02-05T03:23:06.847Z,2.37
2023-02-05T03:26:24.312Z,1.60
2023-02-05T03:29:31.451Z,1.40
2023-02-05T03:32:46.692Z,1.50
2023-02-05T03:35:59.550Z,1.50
2023-02-05T03:39:19.600Z,1.67
2023-02-05T03:42:35.413Z,1.40
2023-02-05T03:45:49.908Z,1.30
2023-02-05T03:49:07.996Z,1.87
2023-02-05T03:52:16.048Z,1.53
2023-02-05T03:55:21.054Z,1.50
2023-02-05T03:58:28.346Z,1.50
2023-02-05T04:01:32.066Z,1.57
2023-02-05T04:04:36.306Z,1.33
2023-02-05T04:07:39.420Z,1.30
2023-02-05T04:10:42.327Z,1.80
2023-02-05T04:13:45.224Z,1.30
2023-02-05T04:16:48.165Z,1.53
2023-02-05T04:19:52.432Z,1.40
2023-02-05T04:22:55.404Z,1.30
2023-02-05T04:25:58.511Z,1.57
2023-02-05T04:29:01.818Z,1.50
2023-02-05T04:32:04.976Z,1.53
2023-02-05T04:35:09.590Z,1.60
2023-02-05T04:38:12.548Z,1.53
2023-02-05T04:41:15.550Z,1.40
2023-02-05T04:44:18.468Z,1.43
2023-02-05T04:47:21.448Z,1.50
2023-02-05T04:50:25.854Z,1.40
2023-02-05T04:53:28.750Z,1.37
2023-02-05T04:56:31.782Z,1.60
2023-02-05T04:59:34.700Z,1.20
2023-02-05T05:02:37.650Z,1.50
2023-02-05T05:05:41.915Z,1.63
2023-02-05T05:08:44.962Z,1.90
2023-02-05T05:11:47.874Z,1.43
2023-02-05T05:14:50.810Z,1.70
2023-02-05T05:17:53.698Z,1.50
2023-02-05T05:20:58.012Z,1.80
2023-02-05T05:24:00.983Z,1.80
2023-02-05T05:27:04.269Z,1.70
2023-02-05T05:30:08.004Z,1.90
2023-02-05T05:33:11.186Z,1.57
2023-02-05T05:36:16.201Z,1.80
2023-02-05T05:39:36.859Z,2.00
2023-02-05T05:42:57.216Z,1.73
2023-02-05T05:46:00.368Z,1.90
2023-02-05T05:49:04.921Z,1.47
2023-02-05T05:52:09.203Z,1.83
2023-02-05T05:55:12.111Z,1.60
2023-02-05T05:58:15.495Z,1.57
2023-02-05T06:01:22.007Z,1.90
2023-02-05T06:04:25.005Z,1.50
2023-02-05T06:07:29.393Z,1.60
2023-02-05T06:10:33.570Z,1.70
2023-02-05T06:13:36.601Z,1.70
2023-02-05T06:16:41.140Z,1.90
2023-02-05T06:19:44.064Z,2.07
2023-02-05T06:22:48.366Z,2.27
2023-02-05T06:25:51.347Z,1.60
2023-02-05T06:28:57.103Z,2.03
2023-02-05T06:32:00.189Z,2.13
2023-02-05T06:35:03.155Z,1.80
2023-02-05T06:38:07.397Z,1.67
2023-02-05T06:41:10.334Z,1.77
2023-02-05T06:44:13.251Z,2.00
2023-02-05T06:47:16.381Z,1.83
2023-02-05T06:50:19.902Z,1.67
2023-02-05T06:53:24.558Z,1.53
2023-02-05T06:56:27.527Z,2.00
2023-02-05T06:59:30.467Z,2.10
2023-02-05T07:02:33.575Z,1.90
2023-02-05T07:05:36.779Z,1.80
2023-02-05T07:08:41.350Z,1.80
2023-02-05T07:11:44.249Z,1.80
2023-02-05T07:14:47.394Z,2.03
2023-02-05T07:17:51.230Z,1.90
2023-02-05T07:20:54.152Z,1.97
2023-02-05T07:23:58.403Z,2.13
2023-02-05T07:27:01.360Z,2.20
2023-02-05T07:30:04.864Z,2.40
2023-02-05T07:33:07.839Z,1.93
2023-02-05T07:36:13.425Z,2.10
2023-02-05T07:39:17.689Z,2.00
2023-02-05T07:42:20.748Z,1.93
2023-02-05T07:45:23.688Z,2.10
2023-02-05T07:48:27.007Z,2.20
2023-02-05T07:51:29.982Z,2.30
2023-02-05T07:54:34.257Z,2.07
2023-02-05T07:57:37.220Z,2.13
2023-02-05T08:00:40.401Z,1.93
2023-02-05T08:03:43.452Z,2.07
2023-02-05T08:06:46.372Z,2.20
2023-02-05T08:09:50.606Z,1.90
2023-02-05T08:12:53.506Z,2.43
2023-02-05T08:15:56.629Z,2.40
2023-02-05T08:18:59.741Z,2.50
2023-02-05T08:22:02.614Z,1.97
2023-02-05T08:25:08.933Z,2.20
2023-02-05T08:28:11.938Z,2.03
2023-02-05T08:31:17.761Z,2.33
2023-02-05T08:34:21.042Z,2.40
2023-02-05T08:37:24.005Z,2.20
2023-02-05T08:40:28.304Z,1.70
2023-02-05T08:43:31.259Z,2.10
2023-02-05T08:46:48.898Z,2.50
2023-02-05T08:49:52.569Z,1.83
2023-02-05T08:52:55.527Z,2.30
2023-02-05T08:56:01.687Z,2.13
2023-02-05T08:59:04.600Z,2.10
2023-02-05T09:02:07.554Z,2.20
2023-02-05T09:05:10.884Z,2.37
2023-02-05T09:08:13.781Z,2.00
2023-02-05T09:11:23.123Z,2.00
2023-02-05T09:14:26.031Z,2.27
2023-02-05T09:17:28.932Z,2.17
2023-02-05T09:20:31.860Z,2.20
2023-02-05T09:23:34.865Z,2.40
2023-02-05T09:26:39.111Z,2.20
2023-02-05T09:29:42.063Z,2.10
2023-02-05T09:32:45.995Z,2.20
2023-02-05T09:35:48.968Z,2.20
2023-02-05T09:39:05.021Z,2.40
2023-02-05T09:42:28.819Z,2.23
2023-02-05T09:45:40.939Z,2.60
2023-02-05T09:48:50.525Z,2.10
2023-02-05T09:52:00.499Z,2.03
2023-02-05T09:55:08.271Z,2.17
2023-02-05T09:58:17.128Z,2.33
2023-02-05T10:01:24.223Z,2.40
2023-02-05T10:04:27.728Z,2.50
2023-02-05T10:07:43.182Z,2.60
2023-02-05T10:10:49.053Z,1.93
2023-02-05T10:14:02.493Z,2.10
2023-02-05T10:17:29.377Z,2.20
2023-02-05T10:20:45.658Z,2.27
2023-02-05T10:24:04.807Z,2.30
2023-02-05T10:27:17.275Z,2.20
2023-02-05T10:30:27.599Z,2.73
2023-02-05T10:33:43.068Z,2.60
2023-02-05T10:36:50.112Z,2.10
2023-02-05T10:39:53.780Z,2.73
2023-02-05T10:43:02.555Z,2.60
2023-02-05T10:46:13.384Z,2.30
2023-02-05T10:49:21.159Z,2.60
2023-02-05T10:52:24.222Z,2.47
2023-02-05T10:55:27.164Z,2.60
2023-02-05T10:58:44.366Z,2.50
2023-02-05T11:01:49.685Z,2.23
2023-02-05T11:04:57.475Z,2.50
2023-02-05T11:08:00.441Z,2.43
2023-02-05T11:11:03.870Z,2.57
2023-02-05T11:14:08.356Z,2.60
2023-02-05T11:17:23.057Z,2.60
2023-02-05T11:20:30.865Z,2.90
2023-02-05T11:23:39.647Z,3.03
2023-02-05T11:26:43.322Z,2.07
2023-02-05T11:29:46.268Z,2.53
2023-02-05T11:32:50.528Z,2.23
2023-02-05T11:35:56.950Z,2.40
2023-02-05T11:39:00.147Z,2.50
2023-02-05T11:42:10.536Z,2.40
2023-02-05T11:45:19.688Z,2.50
2023-02-05T11:48:36.041Z,2.40
2023-02-05T11:51:44.491Z,2.43
2023-02-05T11:54:49.075Z,2.10
2023-02-05T11:58:00.130Z,2.27
2023-02-05T12:01:05.107Z,1.90
2023-02-05T12:04:20.162Z,2.97
2023-02-05T12:07:24.100Z,2.53
2023-02-05T12:10:37.729Z,2.53
2023-02-05T12:13:51.562Z,2.57
2023-02-05T12:17:03.282Z,2.20
2023-02-05T12:20:19.483Z,2.30
2023-02-05T12:23:31.245Z,2.50
2023-02-05T12:26:36.996Z,2.30
2023-02-05T12:29:57.419Z,2.40
2023-02-05T12:33:18.288Z,2.47
2023-02-05T12:36:44.149Z,2.47
2023-02-05T12:39:51.308Z,2.67
2023-02-05T12:43:01.609Z,2.80
2023-02-05T12:46:16.091Z,2.40
2023-02-05T12:49:33.646Z,2.30
2023-02-05T12:52:58.290Z,2.10
2023-02-05T12:56:22.222Z,2.57
2023-02-05T12:59:34.400Z,2.60
2023-02-05T13:02:44.366Z,2.50
2023-02-05T13:05:52.213Z,2.50
2023-02-05T13:09:01.859Z,2.53
2023-02-05T13:12:10.769Z,2.10
2023-02-05T13:15:18.589Z,2.87
2023-02-05T13:18:24.707Z,2.23
2023-02-05T13:21:46.940Z,2.73
2023-02-05T13:25:21.048Z,3.10
2023-02-05T13:28:43.154Z,2.40
2023-02-05T13:31:49.723Z,2.00
2023-02-05T13:34:54.731Z,2.33
2023-02-05T13:38:21.171Z,2.73
2023-02-05T13:41:38.583Z,2.00
2023-02-05T13:45:03.202Z,2.57
2023-02-05T13:48:23.188Z,2.37
2023-02-05T13:51:43.010Z,2.60
2023-02-05T13:55:21.198Z,2.80
2023-02-05T13:58:28.580Z,2.50
2023-02-05T14:01:37.726Z,2.87
2023-02-05T14:04:43.036Z,2.67
2023-02-05T14:07:49.595Z,2.63
2023-02-05T14:11:00.098Z,2.33
2023-02-05T14:14:24.322Z,3.03
2023-02-05T14:17:56.346Z,2.73
2023-02-05T14:20:59.360Z,2.83
2023-02-05T14:24:04.038Z,2.60
2023-02-05T14:27:42.994Z,2.80
2023-02-05T14:30:51.452Z,2.90
2023-02-05T14:33:54.443Z,2.80
2023-02-05T14:36:58.262Z,3.23
2023-02-05T14:40:15.508Z,2.70
2023-02-05T14:43:33.029Z,3.10
2023-02-05T14:46:43.033Z,2.57
2023-02-05T14:49:48.236Z,2.90
2023-02-05T14:52:54.145Z,3.17
2023-02-05T14:55:57.550Z,3.03
2023-02-05T14:59:06.987Z,3.03
2023-02-05T15:02:43.265Z,3.17
2023-02-05T15:05:54.243Z,3.00
2023-02-05T15:09:05.333Z,3.37
2023-02-05T15:12:32.665Z,3.33
2023-02-05T15:15:37.925Z,3.30
2023-02-05T15:18:42.120Z,3.10
2023-02-05T15:21:52.052Z,3.37
2023-02-05T15:24:55.535Z,3.10
2023-02-05T15:28:02.697Z,3.27
2023-02-05T15:31:16.048Z,3.70
2023-02-05T15:34:35.586Z,3.23
2023-02-05T15:37:44.183Z,3.20
2023-02-05T15:40:47.606Z,3.50
2023-02-05T15:44:01.695Z,3.07
2023-02-05T15:47:08.522Z,3.30
2023-02-05T15:50:14.683Z,3.03
2023-02-05T15:53:33.922Z,2.90
2023-02-05T15:56:41.311Z,2.90
2023-02-05T15:59:44.292Z,3.77
2023-02-05T16:02:54.594Z,3.60
2023-02-05T16:05:57.593Z,4.13
2023-02-05T16:09:01.863Z,4.30
2023-02-05T16:12:14.771Z,4.83
2023-02-05T16:15:17.734Z,4.13
2023-02-05T16:18:30.148Z,4.17
2023-02-05T16:21:37.066Z,4.77
2023-02-05T16:24:43.800Z,4.77
2023-02-05T16:27:50.602Z,4.70
2023-02-05T16:30:56.680Z,4.10
2023-02-05T16:34:02.542Z,4.50
2023-02-05T16:37:10.215Z,4.77
2023-02-05T16:40:14.923Z,4.63
2023-02-05T16:43:26.107Z,4.80
2023-02-05T16:46:30.508Z,4.50
2023-02-05T16:49:33.658Z,4.93
2023-02-05T16:52:38.048Z,5.17
2023-02-05T16:55:43.952Z,5.13
2023-02-05T16:58:50.599Z,5.03
2023-02-05T17:01:54.721Z,5.50
2023-02-05T17:04:59.334Z,6.30
2023-02-05T17:08:04.484Z,6.30
2023-02-05T17:11:32.072Z,6.93
2023-02-05T17:14:35.644Z,7.17
2023-02-05T17:17:49.312Z,6.53
2023-02-05T17:20:52.300Z,8.50
2023-02-05T17:23:57.185Z,7.83
2023-02-05T17:27:01.524Z,7.53
2023-02-05T17:30:07.252Z,7.90
2023-02-05T17:33:10.945Z,7.90
2023-02-05T17:36:16.597Z,8.43
2023-02-05T17:39:19.502Z,8.30
2023-02-05T17:42:25.894Z,8.50
2023-02-05T17:45:33.440Z,9.60
2023-02-05T17:48:37.412Z,7.80
2023-02-05T17:51:42.396Z,8.83
2023-02-05T17:54:46.402Z,8.77
2023-02-05T17:57:50.869Z,9.10
2023-02-05T18:00:54.529Z,9.10
2023-02-05T18:03:57.543Z,8.87
2023-02-05T18:07:01.683Z,9.20
2023-02-05T18:10:05.713Z,9.10
2023-02-05T18:13:10.072Z,9.40
2023-02-05T18:16:13.143Z,9.67
2023-02-05T18:19:16.139Z,9.87
2023-02-05T18:22:19.067Z,10.70
2023-02-05T18:25:21.997Z,9.83
2023-02-05T18:28:26.836Z,8.57
2023-02-05T18:31:29.910Z,9.17
2023-02-05T18:34:32.967Z,10.07
2023-02-05T18:37:37.310Z,10.63
2023-02-05T18:40:41.632Z,9.77
2023-02-05T18:43:46.185Z,10.80
2023-02-05T18:46:49.295Z,10.77
2023-02-05T18:49:52.290Z,10.00
2023-02-05T18:52:55.452Z,9.10
2023-02-05T18:56:02.520Z,10.90
2023-02-05T18:59:08.496Z,11.80
2023-02-05T19:02:11.808Z,10.50
2023-02-05T19:05:14.803Z,10.30
2023-02-05T19:08:17.713Z,9.90
2023-02-05T19:11:22.787Z,10.77
2023-02-05T19:14:27.686Z,12.47
2023-02-05T19:17:30.630Z,11.20
2023-02-05T19:20:35.506Z,11.53
2023-02-05T19:23:39.180Z,11.07
2023-02-05T19:26:44.057Z,10.90
2023-02-05T19:29:48.370Z,11.77
2023-02-05T19:32:51.325Z,11.13
2023-02-05T19:35:54.720Z,9.80
2023-02-05T19:38:57.972Z,11.53
2023-02-05T19:42:00.901Z,10.87
2023-02-05T19:45:05.595Z,11.00
2023-02-05T19:48:08.505Z,11.20
2023-02-05T19:51:13.267Z,11.93
2023-02-05T19:54:16.621Z,11.03
2023-02-05T19:57:19.539Z,11.47
2023-02-05T20:00:23.926Z,11.63
2023-02-05T20:03:28.897Z,12.03
2023-02-05T20:06:31.809Z,10.93
2023-02-05T20:09:34.729Z,12.73
2023-02-05T20:12:37.623Z,10.10
2023-02-05T20:15:41.964Z,12.13
2023-02-05T20:18:45.052Z,10.60
2023-02-05T20:21:48.440Z,10.97
2023-02-05T20:24:51.476Z,10.97
2023-02-05T20:27:54.426Z,11.23
2023-02-05T20:31:16.606Z,11.33
2023-02-05T20:34:22.410Z,10.93
2023-02-05T20:37:25.483Z,10.23
2023-02-05T20:40:28.474Z,10.57
2023-02-05T20:43:31.408Z,11.03
2023-02-05T20:46:36.136Z,10.77
2023-02-05T20:49:41.437Z,10.80
2023-02-05T20:52:44.331Z,12.43
2023-02-05T20:55:47.321Z,11.47
2023-02-05T20:58:50.370Z,10.90
2023-02-05T21:01:55.097Z,11.13
2023-02-05T21:04:58.028Z,11.90
2023-02-05T21:08:00.928Z,9.77
2023-02-05T21:11:03.894Z,11.27
2023-02-05T21:14:07.583Z,10.73
2023-02-05T21:17:11.832Z,11.80
2023-02-05T21:20:14.775Z,11.40
2023-02-05T21:23:18.093Z,11.13
2023-02-05T21:26:22.133Z,10.17
2023-02-05T21:29:25.094Z,10.90
2023-02-05T21:32:30.544Z,11.07
2023-02-05T21:35:33.527Z,10.60
2023-02-05T21:38:37.144Z,11.07
2023-02-05T21:41:40.295Z,10.90
2023-02-05T21:44:44.141Z,10.77
2023-02-05T21:47:48.388Z,9.77
2023-02-05T21:50:51.298Z,9.53
2023-02-05T21:53:57.205Z,10.40
2023-02-05T21:57:00.251Z,11.60
2023-02-05T22:00:04.151Z,10.83
2023-02-05T22:03:08.435Z,10.83
2023-02-05T22:06:11.350Z,10.70
2023-02-05T22:09:16.534Z,10.90
2023-02-05T22:12:19.466Z,10.47
2023-02-05T22:15:22.407Z,10.83
2023-02-05T22:18:26.664Z,10.43
2023-02-05T22:21:31.942Z,10.00
2023-02-05T22:24:34.978Z,10.00
2023-02-05T22:27:38.073Z,9.87
2023-02-05T22:30:41.857Z,9.80
2023-02-05T22:33:47.917Z,9.47
2023-02-05T22:36:51.054Z,10.77
2023-02-05T22:39:53.971Z,9.30
2023-02-05T22:42:57.456Z,10.23
2023-02-05T22:46:04.958Z,10.47
2023-02-05T22:49:11.118Z,9.90
2023-02-05T22:52:14.028Z,10.73
2023-02-05T22:55:17.049Z,10.13
2023-02-05T22:58:19.999Z,9.40
2023-02-05T23:01:25.212Z,10.67
2023-02-05T23:04:29.489Z,9.67
2023-02-05T23:07:33.094Z,9.90
2023-02-05T23:10:36.023Z,10.73
2023-02-05T23:13:39.150Z,9.17
2023-02-05T23:16:44.762Z,10.20
2023-02-05T23:19:52.064Z,10.63
2023-02-05T23:22:55.085Z,10.63
2023-02-05T23:25:57.979Z,11.13
2023-02-05T23:29:01.644Z,9.53
2023-02-05T23:32:04.912Z,9.73
2023-02-05T23:35:09.472Z,8.90
2023-02-05T23:38:12.387Z,10.50
2023-02-05T23:41:35.091Z,8.93
2023-02-05T23:44:38.274Z,9.83
2023-02-05T23:47:41.239Z,8.77
2023-02-05T23:50:46.032Z,9.23
2023-02-05T23:53:48.997Z,7.50
2023-02-05T23:56:52.194Z,7.90
2023-02-05T23:59:55.130Z,7.67
